sensor_id;sensor_type;location;lat;lon;timestamp;pressure;altitude;pressure_sealevel;temperature
67966;BMP280;54749;47.850;9.002;2023-11-21T00:00:14;95498.84;;;8.32
67966;BMP280;54749;47.850;9.002;2023-11-21T00:03:02;95496.44;;;8.31
67966;BMP280;54749;47.850;9.002;2023-11-21T00:05:31;95502.38;;;8.30
67966;BMP280;54749;47.850;9.002;2023-11-21T00:07:58;95498.38;;;8.27
67966;BMP280;54749;47.850;9.002;2023-11-21T00:10:26;95490.81;;;8.27
67966;BMP280;54749;47.850;9.002;2023-11-21T00:12:53;95494.94;;;8.28
67966;BMP280;54749;47.850;9.002;2023-11-21T00:15:22;95494.94;;;8.28
67966;BMP280;54749;47.850;9.002;2023-11-21T00:17:49;95487.38;;;8.28
67966;BMP280;54749;47.850;9.002;2023-11-21T00:20:16;95485.69;;;8.29
67966;BMP280;54749;47.850;9.002;2023-11-21T00:22:43;95494.13;;;8.28
67966;BMP280;54749;47.850;9.002;2023-11-21T00:25:11;95497.34;;;8.30
67966;BMP280;54749;47.850;9.002;2023-11-21T00:27:39;95483.84;;;8.31
67966;BMP280;54749;47.850;9.002;2023-11-21T00:30:06;95485.56;;;8.30
67966;BMP280;54749;47.850;9.002;2023-11-21T00:32:37;95477.22;;;8.30
67966;BMP280;54749;47.850;9.002;2023-11-21T00:35:05;95479.59;;;8.31
67966;BMP280;54749;47.850;9.002;2023-11-21T00:37:33;95478.81;;;8.31
67966;BMP280;54749;47.850;9.002;2023-11-21T00:40:00;95468.75;;;8.31
67966;BMP280;54749;47.850;9.002;2023-11-21T00:42:33;95470.34;;;8.32
67966;BMP280;54749;47.850;9.002;2023-11-21T00:45:00;95474.56;;;8.31
67966;BMP280;54749;47.850;9.002;2023-11-21T00:47:28;95473.66;;;8.32
67966;BMP280;54749;47.850;9.002;2023-11-21T00:49:55;95467.94;;;8.30
67966;BMP280;54749;47.850;9.002;2023-11-21T00:52:24;95470.56;;;8.29
67966;BMP280;54749;47.850;9.002;2023-11-21T00:54:51;95465.53;;;8.29
67966;BMP280;54749;47.850;9.002;2023-11-21T00:57:18;95457.88;;;8.30
67966;BMP280;54749;47.850;9.002;2023-11-21T00:59:45;95453.66;;;8.31
67966;BMP280;54749;47.850;9.002;2023-11-21T01:02:12;95457.06;;;8.30
67966;BMP280;54749;47.850;9.002;2023-11-21T01:04:40;95467.16;;;8.30
67966;BMP280;54749;47.850;9.002;2023-11-21T01:07:07;95463.72;;;8.31
67966;BMP280;54749;47.850;9.002;2023-11-21T01:09:35;95467.81;;;8.32
67966;BMP280;54749;47.850;9.002;2023-11-21T01:12:02;95460.28;;;8.32
67966;BMP280;54749;47.850;9.002;2023-11-21T01:14:29;95471.28;;;8.31
67966;BMP280;54749;47.850;9.002;2023-11-21T01:16:57;95473.09;;;8.29
67966;BMP280;54749;47.850;9.002;2023-11-21T01:19:24;95467.16;;;8.30
67966;BMP280;54749;47.850;9.002;2023-11-21T01:21:52;95467.34;;;8.27
67966;BMP280;54749;47.850;9.002;2023-11-21T01:24:19;95472.38;;;8.27
67966;BMP280;54749;47.850;9.002;2023-11-21T01:26:47;95470.81;;;8.26
67966;BMP280;54749;47.850;9.002;2023-11-21T01:29:14;95469.19;;;8.25
67966;BMP280;54749;47.850;9.002;2023-11-21T01:31:42;95476.75;;;8.25
67966;BMP280;54749;47.850;9.002;2023-11-21T01:34:09;95471.00;;;8.23
67966;BMP280;54749;47.850;9.002;2023-11-21T01:36:36;95478.56;;;8.23
67966;BMP280;54749;47.850;9.002;2023-11-21T01:39:04;95474.47;;;8.22
67966;BMP280;54749;47.850;9.002;2023-11-21T01:41:35;95469.63;;;8.19
67966;BMP280;54749;47.850;9.002;2023-11-21T01:44:02;95481.56;;;8.17
67966;BMP280;54749;47.850;9.002;2023-11-21T01:46:31;95478.09;;;8.18
67966;BMP280;54749;47.850;9.002;2023-11-21T01:48:58;95473.19;;;8.17
67966;BMP280;54749;47.850;9.002;2023-11-21T01:51:25;95485.78;;;8.17
67966;BMP280;54749;47.850;9.002;2023-11-21T01:53:55;95478.22;;;8.17
67966;BMP280;54749;47.850;9.002;2023-11-21T01:56:23;95475.25;;;8.12
67966;BMP280;54749;47.850;9.002;2023-11-21T01:58:50;95472.97;;;8.09
67966;BMP280;54749;47.850;9.002;2023-11-21T02:01:18;95469.19;;;8.04
67966;BMP280;54749;47.850;9.002;2023-11-21T02:03:45;95464.38;;;8.01
67966;BMP280;54749;47.850;9.002;2023-11-21T02:06:13;95462.88;;;7.98
67966;BMP280;54749;47.850;9.002;2023-11-21T02:08:40;95463.78;;;7.97
67966;BMP280;54749;47.850;9.002;2023-11-21T02:11:11;95467.00;;;7.99
67966;BMP280;54749;47.850;9.002;2023-11-21T02:13:41;95460.34;;;7.98
67966;BMP280;54749;47.850;9.002;2023-11-21T02:16:12;95456.94;;;7.99
67966;BMP280;54749;47.850;9.002;2023-11-21T02:18:40;95465.44;;;7.97
67966;BMP280;54749;47.850;9.002;2023-11-21T02:21:09;95463.97;;;7.94
67966;BMP280;54749;47.850;9.002;2023-11-21T02:23:36;95465.69;;;7.94
67966;BMP280;54749;47.850;9.002;2023-11-21T02:26:05;95461.56;;;7.93
67966;BMP280;54749;47.850;9.002;2023-11-21T02:28:32;95457.47;;;7.92
67966;BMP280;54749;47.850;9.002;2023-11-21T02:31:00;95453.22;;;7.92
67966;BMP280;54749;47.850;9.002;2023-11-21T02:33:30;95456.53;;;7.93
67966;BMP280;54749;47.850;9.002;2023-11-21T02:36:02;95450.13;;;7.89
67966;BMP280;54749;47.850;9.002;2023-11-21T02:38:29;95452.63;;;7.89
67966;BMP280;54749;47.850;9.002;2023-11-21T02:40:57;95457.00;;;7.87
67966;BMP280;54749;47.850;9.002;2023-11-21T02:43:27;95452.88;;;7.86
67966;BMP280;54749;47.850;9.002;2023-11-21T02:45:55;95457.00;;;7.87
67966;BMP280;54749;47.850;9.002;2023-11-21T02:48:22;95458.00;;;7.85
67966;BMP280;54749;47.850;9.002;2023-11-21T02:50:52;95451.50;;;7.82
67966;BMP280;54749;47.850;9.002;2023-11-21T02:53:20;95455.81;;;7.80
67966;BMP280;54749;47.850;9.002;2023-11-21T02:55:47;95450.22;;;7.77
67966;BMP280;54749;47.850;9.002;2023-11-21T02:58:14;95461.88;;;7.78
67966;BMP280;54749;47.850;9.002;2023-11-21T03:00:42;95449.66;;;7.73
67966;BMP280;54749;47.850;9.002;2023-11-21T03:03:09;95451.47;;;7.71
67966;BMP280;54749;47.850;9.002;2023-11-21T03:05:37;95447.47;;;7.69
67966;BMP280;54749;47.850;9.002;2023-11-21T03:08:06;95445.84;;;7.68
67966;BMP280;54749;47.850;9.002;2023-11-21T03:10:33;95447.69;;;7.66
67966;BMP280;54749;47.850;9.002;2023-11-21T03:13:00;95447.78;;;7.65
67966;BMP280;54749;47.850;9.002;2023-11-21T03:15:28;95446.88;;;7.66
67966;BMP280;54749;47.850;9.002;2023-11-21T03:17:55;95448.47;;;7.67
67966;BMP280;54749;47.850;9.002;2023-11-21T03:20:23;95451.91;;;7.66
67966;BMP280;54749;47.850;9.002;2023-11-21T03:22:50;95450.31;;;7.65
67966;BMP280;54749;47.850;9.002;2023-11-21T03:25:18;95442.28;;;7.60
67966;BMP280;54749;47.850;9.002;2023-11-21T03:27:45;95448.44;;;7.56
67966;BMP280;54749;47.850;9.002;2023-11-21T03:30:12;95451.88;;;7.55
67966;BMP280;54749;47.850;9.002;2023-11-21T03:32:41;95456.22;;;7.53
67966;BMP280;54749;47.850;9.002;2023-11-21T03:35:08;95460.31;;;7.54
67966;BMP280;54749;47.850;9.002;2023-11-21T03:37:36;95452.91;;;7.52
67966;BMP280;54749;47.850;9.002;2023-11-21T03:40:07;95454.63;;;7.52
67966;BMP280;54749;47.850;9.002;2023-11-21T03:42:40;95448.88;;;7.50
67966;BMP280;54749;47.850;9.002;2023-11-21T03:45:07;95444.75;;;7.49
67966;BMP280;54749;47.850;9.002;2023-11-21T03:47:35;95446.59;;;7.47
67966;BMP280;54749;47.850;9.002;2023-11-21T03:50:03;95450.72;;;7.48
67966;BMP280;54749;47.850;9.002;2023-11-21T03:52:30;95449.00;;;7.49
67966;BMP280;54749;47.850;9.002;2023-11-21T03:55:00;95449.78;;;7.49
67966;BMP280;54749;47.850;9.002;2023-11-21T03:57:27;95454.03;;;7.49
67966;BMP280;54749;47.850;9.002;2023-11-21T03:59:57;95448.78;;;7.52
67966;BMP280;54749;47.850;9.002;2023-11-21T04:02:24;95452.91;;;7.52
67966;BMP280;54749;47.850;9.002;2023-11-21T04:04:53;95447.75;;;7.54
67966;BMP280;54749;47.850;9.002;2023-11-21T04:07:20;95444.56;;;7.52
67966;BMP280;54749;47.850;9.002;2023-11-21T04:09:49;95446.38;;;7.50
67966;BMP280;54749;47.850;9.002;2023-11-21T04:12:15;95451.19;;;7.53
67966;BMP280;54749;47.850;9.002;2023-11-21T04:14:43;95445.47;;;7.51
67966;BMP280;54749;47.850;9.002;2023-11-21T04:17:10;95451.97;;;7.53
67966;BMP280;54749;47.850;9.002;2023-11-21T04:19:37;95449.59;;;7.52
67966;BMP280;54749;47.850;9.002;2023-11-21T04:22:04;95454.63;;;7.52
67966;BMP280;54749;47.850;9.002;2023-11-21T04:24:31;95455.28;;;7.54
67966;BMP280;54749;47.850;9.002;2023-11-21T04:26:58;95450.97;;;7.56
67966;BMP280;54749;47.850;9.002;2023-11-21T04:29:25;95455.50;;;7.51
67966;BMP280;54749;47.850;9.002;2023-11-21T04:31:53;95447.97;;;7.51
67966;BMP280;54749;47.850;9.002;2023-11-21T04:34:21;95454.63;;;7.52
67966;BMP280;54749;47.850;9.002;2023-11-21T04:36:49;95454.63;;;7.52
67966;BMP280;54749;47.850;9.002;2023-11-21T04:39:17;95463.75;;;7.53
67966;BMP280;54749;47.850;9.002;2023-11-21T04:41:44;95457.81;;;7.54
67966;BMP280;54749;47.850;9.002;2023-11-21T04:44:11;95456.00;;;7.56
67966;BMP280;54749;47.850;9.002;2023-11-21T04:46:38;95455.28;;;7.54
67966;BMP280;54749;47.850;9.002;2023-11-21T04:49:06;95448.53;;;7.54
67966;BMP280;54749;47.850;9.002;2023-11-21T04:51:33;95448.88;;;7.50
67966;BMP280;54749;47.850;9.002;2023-11-21T04:54:00;95453.00;;;7.51
67966;BMP280;54749;47.850;9.002;2023-11-21T04:56:27;95464.66;;;7.52
67966;BMP280;54749;47.850;9.002;2023-11-21T04:58:54;95458.94;;;7.50
67966;BMP280;54749;47.850;9.002;2023-11-21T05:01:21;95469.69;;;7.52
67966;BMP280;54749;47.850;9.002;2023-11-21T05:03:48;95472.38;;;7.72
67966;BMP280;54749;47.850;9.002;2023-11-21T05:06:16;95469.19;;;7.81
67966;BMP280;54749;47.850;9.002;2023-11-21T05:08:43;95459.53;;;7.98
67966;BMP280;54749;47.850;9.002;2023-11-21T05:11:10;95456.50;;;8.05
67966;BMP280;54749;47.850;9.002;2023-11-21T05:13:37;95457.13;;;7.96
67966;BMP280;54749;47.850;9.002;2023-11-21T05:16:12;95456.75;;;7.90
67966;BMP280;54749;47.850;9.002;2023-11-21T05:18:41;95464.16;;;7.81
67966;BMP280;54749;47.850;9.002;2023-11-21T05:21:08;95458.66;;;7.76
67966;BMP280;54749;47.850;9.002;2023-11-21T05:23:36;95466.34;;;7.74
67966;BMP280;54749;47.850;9.002;2023-11-21T05:26:04;95463.22;;;7.71
67966;BMP280;54749;47.850;9.002;2023-11-21T05:28:32;95458.53;;;7.67
67966;BMP280;54749;47.850;9.002;2023-11-21T05:30:58;95460.59;;;7.62
67966;BMP280;54749;47.850;9.002;2023-11-21T05:33:42;95465.81;;;7.59
67966;BMP280;54749;47.850;9.002;2023-11-21T05:36:09;95472.69;;;7.57
67966;BMP280;54749;47.850;9.002;2023-11-21T05:38:37;95468.09;;;7.51
67966;BMP280;54749;47.850;9.002;2023-11-21T05:41:04;95481.78;;;7.47
67966;BMP280;54749;47.850;9.002;2023-11-21T05:43:31;95481.06;;;7.45
67966;BMP280;54749;47.850;9.002;2023-11-21T05:45:59;95478.78;;;7.42
67966;BMP280;54749;47.850;9.002;2023-11-21T05:48:26;95481.41;;;7.41
67966;BMP280;54749;47.850;9.002;2023-11-21T05:50:53;95484.03;;;7.39
67966;BMP280;54749;47.850;9.002;2023-11-21T05:53:21;95496.72;;;7.38
67966;BMP280;54749;47.850;9.002;2023-11-21T05:55:48;95488.25;;;7.39
67966;BMP280;54749;47.850;9.002;2023-11-21T05:58:15;95489.06;;;7.39
67966;BMP280;54749;47.850;9.002;2023-11-21T06:00:42;95499.13;;;7.39
67966;BMP280;54749;47.850;9.002;2023-11-21T06:03:10;95494.69;;;7.43
67966;BMP280;54749;47.850;9.002;2023-11-21T06:05:37;95506.34;;;7.44
67966;BMP280;54749;47.850;9.002;2023-11-21T06:08:04;95492.84;;;7.45
67966;BMP280;54749;47.850;9.002;2023-11-21T06:10:33;95513.56;;;7.48
67966;BMP280;54749;47.850;9.002;2023-11-21T06:13:01;95516.06;;;7.48
67966;BMP280;54749;47.850;9.002;2023-11-21T06:15:30;95519.25;;;7.50
67966;BMP280;54749;47.850;9.002;2023-11-21T06:17:58;95513.34;;;7.51
67966;BMP280;54749;47.850;9.002;2023-11-21T06:20:25;95526.72;;;7.52
67966;BMP280;54749;47.850;9.002;2023-11-21T06:22:53;95531.03;;;7.50
67966;BMP280;54749;47.850;9.002;2023-11-21T06:25:20;95535.06;;;7.52
67966;BMP280;54749;47.850;9.002;2023-11-21T06:27:50;95533.69;;;7.48
67966;BMP280;54749;47.850;9.002;2023-11-21T06:30:18;95533.44;;;7.51
67966;BMP280;54749;47.850;9.002;2023-11-21T06:32:47;95533.44;;;7.51
67966;BMP280;54749;47.850;9.002;2023-11-21T06:35:15;95536.19;;;7.48
67966;BMP280;54749;47.850;9.002;2023-11-21T06:37:44;95539.50;;;7.49
67966;BMP280;54749;47.850;9.002;2023-11-21T06:40:17;95540.09;;;7.52
67966;BMP280;54749;47.850;9.002;2023-11-21T06:42:48;95545.13;;;7.52
67966;BMP280;54749;47.850;9.002;2023-11-21T06:45:16;95542.59;;;7.52
67966;BMP280;54749;47.850;9.002;2023-11-21T06:47:43;95552.34;;;7.56
67966;BMP280;54749;47.850;9.002;2023-11-21T06:50:12;95543.09;;;7.57
67966;BMP280;54749;47.850;9.002;2023-11-21T06:52:39;95556.34;;;7.59
67966;BMP280;54749;47.850;9.002;2023-11-21T06:55:06;95547.88;;;7.60
67966;BMP280;54749;47.850;9.002;2023-11-21T06:57:36;95556.13;;;7.62
67966;BMP280;54749;47.850;9.002;2023-11-21T07:00:04;95550.31;;;7.61
67966;BMP280;54749;47.850;9.002;2023-11-21T07:02:32;95553.72;;;7.60
67966;BMP280;54749;47.850;9.002;2023-11-21T07:04:59;95547.00;;;7.61
67966;BMP280;54749;47.850;9.002;2023-11-21T07:07:27;95553.50;;;7.63
67966;BMP280;54749;47.850;9.002;2023-11-21T07:09:54;95561.75;;;7.65
67966;BMP280;54749;47.850;9.002;2023-11-21T07:12:21;95557.53;;;7.66
67966;BMP280;54749;47.850;9.002;2023-11-21T07:14:50;95556.50;;;7.68
67966;BMP280;54749;47.850;9.002;2023-11-21T07:17:17;95559.09;;;7.67
67966;BMP280;54749;47.850;9.002;2023-11-21T07:19:44;95557.19;;;7.70
67966;BMP280;54749;47.850;9.002;2023-11-21T07:22:13;95568.53;;;7.75
67966;BMP280;54749;47.850;9.002;2023-11-21T07:24:40;95556.44;;;7.80
67966;BMP280;54749;47.850;9.002;2023-11-21T07:27:08;95563.97;;;7.80
67966;BMP280;54749;47.850;9.002;2023-11-21T07:29:35;95557.13;;;7.82
67966;BMP280;54749;47.850;9.002;2023-11-21T07:32:02;95572.72;;;7.87
67966;BMP280;54749;47.850;9.002;2023-11-21T07:34:30;95562.19;;;7.93
67966;BMP280;54749;47.850;9.002;2023-11-21T07:36:57;95571.44;;;8.05
67966;BMP280;54749;47.850;9.002;2023-11-21T07:39:24;95571.19;;;8.07
67966;BMP280;54749;47.850;9.002;2023-11-21T07:41:52;95573.28;;;8.13
67966;BMP280;54749;47.850;9.002;2023-11-21T07:44:19;95584.50;;;8.20
67966;BMP280;54749;47.850;9.002;2023-11-21T07:46:48;95573.31;;;8.24
67966;BMP280;54749;47.850;9.002;2023-11-21T07:49:17;95575.59;;;8.27
67966;BMP280;54749;47.850;9.002;2023-11-21T07:51:48;95577.69;;;8.33
67966;BMP280;54749;47.850;9.002;2023-11-21T07:54:15;95573.81;;;8.40
67966;BMP280;54749;47.850;9.002;2023-11-21T07:56:43;95576.34;;;8.50
67966;BMP280;54749;47.850;9.002;2023-11-21T07:59:10;95574.41;;;8.64
67966;BMP280;54749;47.850;9.002;2023-11-21T08:01:38;95566.31;;;8.82
67966;BMP280;54749;47.850;9.002;2023-11-21T08:04:07;95585.19;;;8.98
67966;BMP280;54749;47.850;9.002;2023-11-21T08:06:35;95583.13;;;9.03
67966;BMP280;54749;47.850;9.002;2023-11-21T08:09:02;95588.75;;;9.07
67966;BMP280;54749;47.850;9.002;2023-11-21T08:11:30;95579.81;;;9.03
67966;BMP280;54749;47.850;9.002;2023-11-21T08:13:59;95575.69;;;9.02
67966;BMP280;54749;47.850;9.002;2023-11-21T08:16:27;95575.81;;;9.00
67966;BMP280;54749;47.850;9.002;2023-11-21T08:18:54;95581.88;;;8.98
67966;BMP280;54749;47.850;9.002;2023-11-21T08:21:22;95583.72;;;8.96
67966;BMP280;54749;47.850;9.002;2023-11-21T08:23:51;95585.53;;;8.94
67966;BMP280;54749;47.850;9.002;2023-11-21T08:26:21;95582.44;;;8.91
67966;BMP280;54749;47.850;9.002;2023-11-21T08:28:49;95575.91;;;8.88
67966;BMP280;54749;47.850;9.002;2023-11-21T08:31:17;95577.28;;;8.81
67966;BMP280;54749;47.850;9.002;2023-11-21T08:33:44;95579.81;;;8.81
67966;BMP280;54749;47.850;9.002;2023-11-21T08:36:11;95575.91;;;8.88
67966;BMP280;54749;47.850;9.002;2023-11-21T08:38:39;95590.69;;;8.92
67966;BMP280;54749;47.850;9.002;2023-11-21T08:41:07;95596.06;;;8.99
67966;BMP280;54749;47.850;9.002;2023-11-21T08:43:35;95586.56;;;9.02
67966;BMP280;54749;47.850;9.002;2023-11-21T08:46:07;95584.75;;;9.04
67966;BMP280;54749;47.850;9.002;2023-11-21T08:48:36;95594.91;;;9.13
67966;BMP280;54749;47.850;9.002;2023-11-21T08:51:04;95591.69;;;9.22
67966;BMP280;54749;47.850;9.002;2023-11-21T08:53:32;95588.72;;;9.28
67966;BMP280;54749;47.850;9.002;2023-11-21T08:56:00;95590.19;;;9.41
67966;BMP280;54749;47.850;9.002;2023-11-21T08:58:27;95583.19;;;9.55
67966;BMP280;54749;47.850;9.002;2023-11-21T09:00:54;95587.28;;;9.67
67966;BMP280;54749;47.850;9.002;2023-11-21T09:03:21;95596.09;;;9.72
67966;BMP280;54749;47.850;9.002;2023-11-21T09:05:50;95598.97;;;9.79
67966;BMP280;54749;47.850;9.002;2023-11-21T09:08:18;95606.06;;;9.84
67966;BMP280;54749;47.850;9.002;2023-11-21T09:10:45;95596.34;;;10.00
67966;BMP280;54749;47.850;9.002;2023-11-21T09:13:14;95594.91;;;10.17
67966;BMP280;54749;47.850;9.002;2023-11-21T09:15:43;95604.34;;;10.35
67966;BMP280;54749;47.850;9.002;2023-11-21T09:18:13;95609.66;;;10.52
67966;BMP280;54749;47.850;9.002;2023-11-21T09:20:42;95608.97;;;10.70
67966;BMP280;54749;47.850;9.002;2023-11-21T09:23:10;95611.69;;;10.98
67966;BMP280;54749;47.850;9.002;2023-11-21T09:25:38;95610.91;;;11.07
67966;BMP280;54749;47.850;9.002;2023-11-21T09:28:05;95612.97;;;11.42
67966;BMP280;54749;47.850;9.002;2023-11-21T09:30:35;95602.16;;;12.06
67966;BMP280;54749;47.850;9.002;2023-11-21T09:33:03;95606.94;;;12.74
67966;BMP280;54749;47.850;9.002;2023-11-21T09:35:35;95609.25;;;13.12
67966;BMP280;54749;47.850;9.002;2023-11-21T09:38:02;95605.56;;;13.07
67966;BMP280;54749;47.850;9.002;2023-11-21T09:40:33;95607.31;;;12.88
67966;BMP280;54749;47.850;9.002;2023-11-21T09:43:01;95615.06;;;12.77
67966;BMP280;54749;47.850;9.002;2023-11-21T09:45:34;95615.50;;;12.45
67966;BMP280;54749;47.850;9.002;2023-11-21T09:48:02;95614.03;;;12.24
67966;BMP280;54749;47.850;9.002;2023-11-21T09:50:30;95617.38;;;12.25
67966;BMP280;54749;47.850;9.002;2023-11-21T09:55:43;95615.22;;;12.29
67966;BMP280;54749;47.850;9.002;2023-11-21T09:58:11;95613.38;;;12.31
67966;BMP280;54749;47.850;9.002;2023-11-21T10:00:45;95614.56;;;12.37
67966;BMP280;54749;47.850;9.002;2023-11-21T10:03:13;95614.41;;;12.38
67966;BMP280;54749;47.850;9.002;2023-11-21T10:05:43;95611.63;;;12.23
67966;BMP280;54749;47.850;9.002;2023-11-21T10:08:13;95612.56;;;12.22
67966;BMP280;54749;47.850;9.002;2023-11-21T10:10:45;95609.09;;;12.23
67966;BMP280;54749;47.850;9.002;2023-11-21T10:13:15;95604.81;;;12.14
67966;BMP280;54749;47.850;9.002;2023-11-21T10:15:49;95619.50;;;12.10
67966;BMP280;54749;47.850;9.002;2023-11-21T10:18:17;95619.47;;;12.01
67966;BMP280;54749;47.850;9.002;2023-11-21T10:20:45;95618.94;;;11.98
67966;BMP280;54749;47.850;9.002;2023-11-21T10:23:20;95622.28;;;11.98
67966;BMP280;54749;47.850;9.002;2023-11-21T10:25:51;95615.22;;;12.02
67966;BMP280;54749;47.850;9.002;2023-11-21T10:28:20;95608.69;;;12.27
67966;BMP280;54749;47.850;9.002;2023-11-21T10:30:48;95614.16;;;12.60
67966;BMP280;54749;47.850;9.002;2023-11-21T10:33:15;95609.97;;;12.96
67966;BMP280;54749;47.850;9.002;2023-11-21T10:35:48;95610.81;;;13.22
67966;BMP280;54749;47.850;9.002;2023-11-21T10:41:11;95598.44;;;13.19
67966;BMP280;54749;47.850;9.002;2023-11-21T10:43:39;95595.09;;;13.45
67966;BMP280;54749;47.850;9.002;2023-11-21T10:46:06;95595.34;;;14.80
67966;BMP280;54749;47.850;9.002;2023-11-21T10:48:33;95594.63;;;15.85
67966;BMP280;54749;47.850;9.002;2023-11-21T10:51:06;95590.97;;;16.98
67966;BMP280;54749;47.850;9.002;2023-11-21T10:53:39;95591.75;;;16.36
67966;BMP280;54749;47.850;9.002;2023-11-21T10:56:10;95591.66;;;15.57
67966;BMP280;54749;47.850;9.002;2023-11-21T10:58:45;95604.38;;;14.91
67966;BMP280;54749;47.850;9.002;2023-11-21T11:01:13;95596.63;;;14.25
67966;BMP280;54749;47.850;9.002;2023-11-21T11:03:42;95594.31;;;14.31
67966;BMP280;54749;47.850;9.002;2023-11-21T11:06:12;95592.03;;;14.62
67966;BMP280;54749;47.850;9.002;2023-11-21T11:08:39;95593.84;;;14.70
67966;BMP280;54749;47.850;9.002;2023-11-21T11:11:07;95587.75;;;14.88
67966;BMP280;54749;47.850;9.002;2023-11-21T11:13:34;95587.47;;;15.15
67966;BMP280;54749;47.850;9.002;2023-11-21T11:16:03;95583.31;;;15.39
67966;BMP280;54749;47.850;9.002;2023-11-21T11:18:34;95585.16;;;15.29
67966;BMP280;54749;47.850;9.002;2023-11-21T11:21:13;95582.28;;;15.24
67966;BMP280;54749;47.850;9.002;2023-11-21T11:24:12;95574.56;;;15.42
67966;BMP280;54749;47.850;9.002;2023-11-21T11:26:51;95572.00;;;15.42
67966;BMP280;54749;47.850;9.002;2023-11-21T11:30:07;95566.41;;;15.30
67966;BMP280;54749;47.850;9.002;2023-11-21T11:33:21;95568.88;;;15.47
67966;BMP280;54749;47.850;9.002;2023-11-21T11:35:52;95564.53;;;15.32
67966;BMP280;54749;47.850;9.002;2023-11-21T11:38:21;95568.44;;;15.19
67966;BMP280;54749;47.850;9.002;2023-11-21T11:40:53;95574.47;;;14.76
67966;BMP280;54749;47.850;9.002;2023-11-21T11:43:27;95572.06;;;14.16
67966;BMP280;54749;47.850;9.002;2023-11-21T11:46:02;95577.94;;;13.83
67966;BMP280;54749;47.850;9.002;2023-11-21T11:48:35;95592.28;;;13.48
67966;BMP280;54749;47.850;9.002;2023-11-21T11:51:15;95593.19;;;13.21
67966;BMP280;54749;47.850;9.002;2023-11-21T11:53:45;95587.44;;;12.93
67966;BMP280;54749;47.850;9.002;2023-11-21T11:56:26;95587.34;;;12.66
67966;BMP280;54749;47.850;9.002;2023-11-21T11:58:56;95589.75;;;12.59
67966;BMP280;54749;47.850;9.002;2023-11-21T12:01:27;95593.34;;;12.65
67966;BMP280;54749;47.850;9.002;2023-11-21T12:07:06;95585.88;;;12.55
67966;BMP280;54749;47.850;9.002;2023-11-21T12:09:36;95587.63;;;12.54
67966;BMP280;54749;47.850;9.002;2023-11-21T12:12:05;95596.03;;;12.64
67966;BMP280;54749;47.850;9.002;2023-11-21T12:14:32;95585.31;;;12.79
67966;BMP280;54749;47.850;9.002;2023-11-21T12:16:59;95589.03;;;12.94
67966;BMP280;54749;47.850;9.002;2023-11-21T12:19:27;95591.34;;;12.60
67966;BMP280;54749;47.850;9.002;2023-11-21T12:21:55;95587.22;;;12.68
67966;BMP280;54749;47.850;9.002;2023-11-21T12:24:23;95587.03;;;12.88
67966;BMP280;54749;47.850;9.002;2023-11-21T12:26:50;95590.03;;;13.10
67966;BMP280;54749;47.850;9.002;2023-11-21T12:29:18;95593.19;;;13.21
67966;BMP280;54749;47.850;9.002;2023-11-21T12:31:45;95585.47;;;13.13
67966;BMP280;54749;47.850;9.002;2023-11-21T12:34:13;95595.97;;;12.92
67966;BMP280;54749;47.850;9.002;2023-11-21T12:36:40;95598.81;;;12.70
67966;BMP280;54749;47.850;9.002;2023-11-21T12:39:07;95607.38;;;12.51
67966;BMP280;54749;47.850;9.002;2023-11-21T12:41:36;95608.56;;;12.28
67966;BMP280;54749;47.850;9.002;2023-11-21T12:44:04;95612.16;;;12.17
67966;BMP280;54749;47.850;9.002;2023-11-21T12:46:31;95615.75;;;12.05
67966;BMP280;54749;47.850;9.002;2023-11-21T12:49:01;95613.63;;;12.01
67966;BMP280;54749;47.850;9.002;2023-11-21T12:51:28;95614.00;;;11.96
67966;BMP280;54749;47.850;9.002;2023-11-21T12:53:56;95610.66;;;11.96
67966;BMP280;54749;47.850;9.002;2023-11-21T12:56:25;95613.88;;;11.89
67966;BMP280;54749;47.850;9.002;2023-11-21T12:58:54;95616.66;;;11.76
67966;BMP280;54749;47.850;9.002;2023-11-21T13:01:26;95618.66;;;11.73
67966;BMP280;54749;47.850;9.002;2023-11-21T13:03:57;95619.22;;;11.86
67966;BMP280;54749;47.850;9.002;2023-11-21T13:06:24;95623.22;;;11.97
67966;BMP280;54749;47.850;9.002;2023-11-21T13:08:54;95623.75;;;12.10
67966;BMP280;54749;47.850;9.002;2023-11-21T13:11:24;95620.72;;;12.16
67966;BMP280;54749;47.850;9.002;2023-11-21T13:13:53;95616.06;;;12.21
67966;BMP280;54749;47.850;9.002;2023-11-21T13:16:20;95618.72;;;12.28
67966;BMP280;54749;47.850;9.002;2023-11-21T13:18:48;95617.34;;;12.43
67966;BMP280;54749;47.850;9.002;2023-11-21T13:21:15;95613.38;;;12.50
67966;BMP280;54749;47.850;9.002;2023-11-21T13:23:44;95617.63;;;12.59
67966;BMP280;54749;47.850;9.002;2023-11-21T13:26:13;95614.41;;;12.57
67966;BMP280;54749;47.850;9.002;2023-11-21T13:28:42;95613.78;;;12.55
67966;BMP280;54749;47.850;9.002;2023-11-21T13:31:13;95629.63;;;12.47
67966;BMP280;54749;47.850;9.002;2023-11-21T13:33:54;95617.09;;;12.27
67966;BMP280;54749;47.850;9.002;2023-11-21T13:36:31;95623.63;;;12.02
67966;BMP280;54749;47.850;9.002;2023-11-21T13:39:00;95628.19;;;11.60
67966;BMP280;54749;47.850;9.002;2023-11-21T13:41:35;95631.84;;;11.18
67966;BMP280;54749;47.850;9.002;2023-11-21T13:44:05;95635.09;;;11.00
67966;BMP280;54749;47.850;9.002;2023-11-21T13:46:44;95634.53;;;10.97
67966;BMP280;54749;47.850;9.002;2023-11-21T13:49:13;95640.09;;;10.91
67966;BMP280;54749;47.850;9.002;2023-11-21T13:51:41;95646.97;;;10.80
67966;BMP280;54749;47.850;9.002;2023-11-21T13:54:12;95642.59;;;10.82
67966;BMP280;54749;47.850;9.002;2023-11-21T13:56:41;95646.09;;;10.70
67966;BMP280;54749;47.850;9.002;2023-11-21T13:59:10;95645.59;;;10.76
67966;BMP280;54749;47.850;9.002;2023-11-21T14:01:47;95647.81;;;10.89
67966;BMP280;54749;47.850;9.002;2023-11-21T14:04:35;95644.53;;;10.98
67966;BMP280;54749;47.850;9.002;2023-11-21T14:07:16;95643.66;;;11.08
67966;BMP280;54749;47.850;9.002;2023-11-21T14:09:59;95637.06;;;10.97
67966;BMP280;54749;47.850;9.002;2023-11-21T14:12:27;95649.22;;;11.02
67966;BMP280;54749;47.850;9.002;2023-11-21T14:14:55;95649.09;;;11.04
67966;BMP280;54749;47.850;9.002;2023-11-21T14:17:22;95656.66;;;10.95
67966;BMP280;54749;47.850;9.002;2023-11-21T14:19:51;95656.59;;;10.85
67966;BMP280;54749;47.850;9.002;2023-11-21T14:22:18;95654.59;;;10.89
67966;BMP280;54749;47.850;9.002;2023-11-21T14:24:46;95662.19;;;10.89
67966;BMP280;54749;47.850;9.002;2023-11-21T14:27:14;95668.84;;;10.90
67966;BMP280;54749;47.850;9.002;2023-11-21T14:29:42;95663.72;;;10.81
67966;BMP280;54749;47.850;9.002;2023-11-21T14:32:12;95670.06;;;10.75
67966;BMP280;54749;47.850;9.002;2023-11-21T14:34:40;95666.66;;;10.66